EW1669 Weather Reports


time (UTC)temp
C
wind
direction
speed
KPH
gust
KPH
rain 1hr
cm
rain 24hr
cm
rain mn
cm
humidity
%
barometer
mb
20220524040053 17 66 0.0 12.9 0.00 2.95 2.95 97 862.2
20220524035547 17 105 0.0 8.0 0.00 2.95 2.95 96 862.9
20220524035041 17 103 0.0 16.1 0.00 2.95 2.95 97 863.6
20220524034534 18 104 0.0 16.1 0.05 2.95 2.95 96 863.2
20220524034032 18 83 3.2 12.9 0.05 2.95 2.95 96 862.6
20220524033524 18 100 1.6 16.1 0.05 2.95 2.95 97 862.2
20220524033018 18 95 0.0 16.1 0.05 2.95 2.95 97 862.2
20220524032513 18 131 0.0 12.9 0.05 2.95 2.95 97 862.6
20220524032003 18 133 0.0 3.2 0.05 2.95 2.95 97 862.9
20220524031456 18 36 0.0 0.0 0.08 2.95 2.95 97 862.6
20220524030953 18 52 0.0 8.0 0.10 2.95 2.95 97 862.9
20220524030443 18 107 0.0 8.0 0.13 2.95 2.95 97 862.9
20220524025937 18 65 0.0 16.1 0.15 2.95 2.95 97 862.6
20220524025432 18 116 0.0 16.1 0.18 2.95 2.95 96 862.9
20220524024926 19 124 0.0 12.9 0.25 2.95 2.95 96 862.6
20220524024420 20 34 0.0 8.0 0.46 2.90 2.90 97 862.9
20220524023915 20 42 0.0 8.0 1.17 2.90 2.90 96 863.9
20220524023408 20 105 0.0 12.9 1.40 2.90 2.90 96 863.9
20220524022903 20 122 0.0 12.9 1.65 2.90 2.90 96 863.9
20220524022356 19 107 0.0 3.2 1.65 2.90 2.90 96 863.9
20220524021853 18 43 0.0 0.0 1.73 2.90 2.90 96 863.9
20220524021345 18 64 0.0 3.2 1.70 2.87 2.87 95 864.2
20220524020840 17 76 0.0 3.2 1.65 2.82 2.84 96 864.6
20220524020331 17 133 0.0 20.9 1.65 2.82 2.82 97 864.6
20220524015826 17 148 0.0 24.1 1.70 2.77 2.77 96 864.2
20220524015321 17 103 0.0 24.1 1.70 2.77 2.77 95 863.9
20220524014814 17 106 0.0 0.0 1.60 2.67 2.67 94 863.6
20220524014312 17 63 0.0 0.0 1.24 2.31 2.36 93 863.6
20220524013804 17 53 0.0 24.1 0.61 1.68 1.70 93 863.9
20220524013256 17 285 0.0 24.1 0.41 1.47 1.47 92 863.6
20220524012754 17 127 3.2 12.9 0.18 1.24 1.24 90 862.2
20220524012244 18 52 0.0 12.9 0.18 1.24 1.24 90 861.9
20220524011740 18 137 0.0 16.1 0.10 1.17 1.17 88 862.2
20220524011231 19 123 0.0 16.1 0.10 1.17 1.17 84 861.9
20220524010726 20 119 0.0 12.9 0.10 1.17 1.17 78 861.2
20220524010219 20 94 0.0 16.1 0.08 1.14 1.14 70 861.5
20220524005718 20 131 8.0 16.1 0.00 1.07 1.07 70 861.5
20220524005210 20 72 0.0 16.1 0.00 1.07 1.07 71 861.2
20220524004702 20 132 0.0 16.1 0.00 1.07 1.07 64 861.2
20220524004157 21 71 1.6 24.1 0.00 1.07 1.07 66 861.2
20220524003654 21 110 3.2 24.1 0.00 1.07 1.07 68 861.2
20220524003146 21 110 0.0 32.2 0.00 1.07 1.07 68 861.5
20220524002638 21 136 3.2 32.2 0.00 1.07 1.07 64 861.2
20220524002131 21 151 8.0 27.4 0.00 1.07 1.07 61 861.5
20220524001625 21 49 0.0 12.9 0.00 1.07 1.07 61 861.2
20220524001118 21 118 0.0 12.9 0.00 1.07 1.07 59 861.2
20220524000613 21 132 0.0 16.1 0.03 1.07 1.07 61 861.2
20220524000106 21 147 0.0 16.1 0.05 1.07 1.07 63 861.2
20220523235606 21 104 0.0 3.2 0.05 1.07 1.07 68 861.2
20220523235050 21 68 0.0 3.2 0.05 1.07 1.07 67 861.5
20220523234545 20 32 0.0 8.0 0.05 1.07 1.07 63 861.2
20220523234042 20 113 0.0 8.0 0.05 1.07 1.07 62 861.5
20220523233533 18 186 0.0 8.0 0.05 1.07 1.07 87 861.2
20220523233027 18 155 0.0 8.0 0.28 1.07 1.07 93 861.2
20220523232518 18 177 0.0 0.0 0.56 1.07 1.07 95 860.9
20220523232012 18 172 0.0 0.0 0.58 1.07 1.07 96 860.9
20220523231508 18 256 0.0 0.0 0.69 1.07 1.07 95 860.9
20220523231004 18 207 0.0 0.0 0.81 1.04 1.07 95 861.2
20220523230457 17 175 0.0 0.0 0.99 1.04 1.04 95 861.2
20220523225953 17 277 0.0 0.0 1.02 1.02 1.02 96 861.5
20220523225443 16 263 0.0 0.0 1.02 1.02 1.02 95 861.5
20220523224937 16 128 0.0 0.0 1.02 1.02 1.02 94 861.9
20220523224429 16 113 0.0 0.0 1.02 1.02 1.02 91 861.9
20220523223924 16 335 0.0 8.0 1.02 1.02 1.02 90 861.9
20220523223417 17 218 0.0 8.0 1.02 1.02 1.02 87 862.6
20220523222913 19 238 0.0 0.0 0.71 0.71 0.71 81 862.6
20220523222405 21 153 0.0 0.0 0.51 0.51 0.51 80 862.2
20220523221901 22 194 0.0 12.9 0.48 0.48 0.48 78 862.6
20220523221357 23 259 0.0 20.9 0.36 0.36 0.36 71 862.6
20220523220847 25 241 0.0 20.9 0.18 0.18 0.18 58 862.6
20220523220341 26 195 0.0 20.9 0.00 0.00 0.03 34 862.6
20220523215835 26 150 0.0 24.1 0.00 0.00 0.00 32 861.9
20220523215331 26 161 1.6 24.1 0.00 0.00 0.00 30 862.6
20220523214823 26 146 0.0 20.9 0.00 0.00 0.00 31 862.6
20220523214316 26 147 0.0 20.9 0.00 0.00 0.00 32 862.9
20220523213814 26 182 8.0 12.9 0.00 0.00 0.00 31 862.9
20220523213308 26 146 1.6 12.9 0.00 0.00 0.00 30 863.6
20220523212759 27 155 0.0 16.1 0.00 0.00 0.00 28 863.6
20220523212256 27 157 0.0 16.1 0.00 0.00 0.00 30 863.6
20220523211747 27 185 0.0 16.1 0.00 0.00 0.00 30 863.6
20220523211241 27 159 3.2 16.1 0.00 0.00 0.00 28 863.6
20220523210734 27 267 1.6 16.1 0.00 0.00 0.00 29 863.9
20220523210230 27 163 0.0 16.1 0.00 0.00 0.00 28 863.9
20220523205723 27 189 0.0 12.9 0.00 0.00 0.00 29 864.2
20220523205217 27 164 3.2 16.1 0.00 0.00 0.00 29 864.2
20220523204712 27 144 1.6 16.1 0.00 0.00 0.00 29 864.2
20220523204208 26 261 0.0 12.9 0.00 0.00 0.00 29 864.2
20220523203704 26 174 1.6 16.1 0.00 0.00 0.00 30 864.2
20220523203154 26 225 0.0 16.1 0.00 0.00 0.00 29 864.6
20220523202647 26 162 0.0 16.1 0.00 0.00 0.00 30 864.6
20220523202143 25 225 0.0 16.1 0.00 0.00 0.00 30 864.9
20220523201639 25 175 0.0 20.9 0.00 0.00 0.00 31 864.9
20220523201132 25 245 0.0 20.9 0.00 0.00 0.00 32 865.3
20220523200622 25 197 0.0 16.1 0.00 0.00 0.00 33 865.3
20220523200118 25 169 0.0 12.9 0.00 0.00 0.00 33 865.3
20220523195610 25 161 0.0 12.9 0.00 0.00 0.00 33 865.3
20220523195104 24 177 0.0 8.0 0.00 0.00 0.00 33 865.6
20220523194558 24 153 0.0 8.0 0.00 0.00 0.00 33 865.9
20220523194056 24 198 0.0 12.9 0.00 0.00 0.00 35 865.6
20220523193547 24 153 0.0 16.1 0.00 0.00 0.00 36 865.9
20220523193043 24 169 0.0 16.1 0.00 0.00 0.00 37 865.9
20220523192533 24 171 0.0 20.9 0.00 0.00 0.00 36 866.3
20220523192026 23 189 0.0 20.9 0.00 0.00 0.00 37 865.9
20220523191521 23 167 0.0 16.1 0.00 0.00 0.00 37 866.3
20220523191013 23 165 0.0 12.9 0.00 0.00 0.00 37 866.3
20220523190513 23 180 1.6 16.1 0.00 0.00 0.00 39 866.3
20220523190001 23 219 0.0 20.9 0.00 0.00 0.00 40 866.6
20220523185454 23 162 4.8 20.9 0.00 0.00 0.00 41 866.6
20220523184946 23 155 0.0 20.9 0.00 0.00 0.00 42 866.6
20220523184440 23 164 0.0 20.9 0.00 0.00 0.00 42 866.6
20220523183935 22 160 1.6 20.9 0.00 0.00 0.00 43 867.0
20220523183431 22 167 3.2 16.1 0.00 0.00 0.00 44 867.3
20220523182920 22 240 1.6 16.1 0.00 0.00 0.00 43 867.0
20220523182414 22 138 1.6 16.1 0.00 0.00 0.00 43 867.0
20220523181908 22 172 0.0 16.1 0.00 0.00 0.00 43 867.0
20220523181405 22 164 0.0 16.1 0.00 0.00 0.00 43 867.6
20220523180858 22 224 0.0 16.1 0.00 0.00 0.00 42 867.3
20220523180353 22 157 4.8 12.9 0.00 0.00 0.00 43 867.6
20220523175846 22 237 1.6 12.9 0.00 0.00 0.00 43 867.6
20220523175341 22 166 0.0 16.1 0.00 0.00 0.00 48 867.6
20220523174833 21 162 0.0 16.1 0.00 0.00 0.00 46 867.6
20220523174327 21 155 0.0 8.0 0.00 0.00 0.00 45 868.0
20220523173823 21 218 0.0 8.0 0.00 0.00 0.00 46 868.0
20220523173317 21 160 3.2 16.1 0.00 0.00 0.00 49 868.0
20220523172808 21 229 0.0 16.1 0.00 0.00 0.00 50 868.0
20220523172301 20 160 6.4 16.1 0.00 0.00 0.00 50 868.0
20220523171756 20 137 3.2 16.1 0.00 0.00 0.00 50 868.0
20220523171249 20 155 0.0 16.1 0.00 0.00 0.00 51 868.3
20220523170744 20 192 1.6 8.0 0.00 0.00 0.00 52 868.3
20220523170238 20 172 1.6 12.9 0.00 0.00 0.00 52 868.3
20220523165732 20 186 0.0 24.1 0.00 0.00 0.00 52 868.3
20220523165230 19 217 0.0 12.9 0.00 0.00 0.00 52 868.3
20220523164720 19 218 0.0 12.9 0.00 0.00 0.00 54 868.6
20220523164216 18 145 4.8 12.9 0.00 0.00 0.00 52 868.6
20220523163707 18 234 0.0 12.9 0.00 0.00 0.00 54 868.6
20220523163203 18 159 0.0 16.1 0.00 0.00 0.00 54 868.6
20220523162656 18 155 0.0 16.1 0.00 0.00 0.00 55 868.6
20220523162149 18 230 0.0 12.9 0.00 0.00 0.00 56 868.6
20220523161644 17 229 0.0 12.9 0.00 0.00 0.00 56 868.6
20220523161146 17 205 0.0 12.9 0.00 0.00 0.00 56 869.0
20220523160641 17 166 4.8 12.9 0.00 0.00 0.00 55 869.0
20220523160136 17 165 0.0 20.9 0.00 0.00 0.00 57 868.6
20220523155630 17 143 0.0 20.9 0.00 0.00 0.00 56 868.6
20220523155052 17 179 0.0 12.9 0.00 0.00 0.00 56 869.0
20220523154545 17 169 0.0 12.9 0.00 0.00 0.00 56 869.3
20220523154042 16 176 3.2 12.9 0.00 0.00 0.00 56 869.3
20220523153533 16 177 0.0 8.0 0.00 0.00 0.00 57 869.3
20220523153030 16 158 0.0 12.9 0.00 0.00 0.00 57 869.7
20220523152522 16 163 0.0 12.9 0.00 0.00 0.00 59 869.7
20220523152017 16 158 4.8 12.9 0.00 0.00 0.00 57 870.0
20220523151510 16 169 0.0 20.9 0.00 0.00 0.00 59 869.7
20220523151004 15 147 1.6 20.9 0.00 0.00 0.00 59 869.7
20220523150458 15 159 4.8 12.9 0.00 0.00 0.00 59 870.0
20220523145953 15 192 0.0 12.9 0.00 0.00 0.00 61 869.7
20220523145447 15 161 0.0 12.9 0.00 0.00 0.00 60 870.3
20220523144942 15 82 1.6 24.1 0.00 0.00 0.00 61 870.0
20220523144436 14 220 0.0 24.1 0.00 0.00 0.00 61 870.0
20220523143931 14 197 3.2 20.9 0.00 0.00 0.00 62 870.0
20220523143423 13 162 0.0 20.9 0.00 0.00 0.00 61 870.0
20220523142914 13 181 9.7 16.1 0.00 0.00 0.00 62 870.0
20220523142409 13 162 1.6 16.1 0.00 0.00 0.00 62 870.3
20220523141903 13 182 0.0 16.1 0.00 0.00 0.00 63 870.3
20220523141400 13 150 9.7 27.4 0.00 0.00 0.00 65 870.0
20220523140854 13 161 16.1 27.4 0.00 0.00 0.00 64 870.3
20220523140346 13 172 0.0 20.9 0.00 0.00 0.00 63 870.3
20220523135840 13 166 0.0 12.9 0.00 0.00 0.00 64 870.3
20220523135334 13 127 1.6 12.9 0.00 0.00 0.00 64 870.3
20220523134823 12 163 0.0 12.9 0.00 0.00 0.00 64 870.3
20220523134320 12 134 0.0 16.1 0.00 0.00 0.00 65 870.7
20220523133811 12 104 0.0 16.1 0.00 0.00 0.00 64 870.7
20220523133304 12 133 0.0 12.9 0.00 0.00 0.00 64 870.3
20220523132758 12 148 0.0 12.9 0.00 0.00 0.00 63 870.7
20220523132253 12 141 0.0 16.1 0.00 0.00 0.00 63 870.3
20220523131746 12 160 0.0 16.1 0.00 0.00 0.00 62 870.7
20220523131243 12 146 0.0 12.9 0.00 0.00 0.00 61 870.3
20220523130736 12 151 0.0 12.9 0.00 0.00 0.00 62 870.7
20220523130231 12 135 0.0 12.9 0.00 0.00 0.00 61 870.3
20220523125723 12 145 0.0 12.9 0.00 0.00 0.00 61 870.7
20220523125220 12 153 0.0 8.0 0.00 0.00 0.00 61 870.3
20220523124711 12 152 3.2 8.0 0.00 0.00 0.00 62 870.7
20220523124203 12 131 0.0 12.9 0.00 0.00 0.00 61 870.7
20220523123658 12 165 0.0 12.9 0.00 0.00 0.00 61 870.7
20220523123152 12 136 0.0 3.2 0.00 0.00 0.00 60 871.0
20220523122647 12 144 0.0 3.2 0.00 0.00 0.00 59 870.7
20220523122138 12 110 0.0 8.0 0.00 0.00 0.00 58 870.7
20220523121633 12 132 0.0 8.0 0.00 0.00 0.00 57 870.7
20220523121128 12 154 0.0 3.2 0.00 0.00 0.00 55 870.7
20220523120622 12 127 0.0 3.2 0.00 0.00 0.00 53 870.3
20220523120115 12 131 0.0 3.2 0.00 0.00 0.00 53 870.7
20220523115606 12 129 0.0 3.2 0.00 0.00 0.00 52 870.3
20220523115102 12 144 0.0 0.0 0.00 0.00 0.00 50 870.3
20220523114556 12 147 0.0 0.0 0.00 0.00 0.00 50 870.0
20220523114053 12 151 0.0 0.0 0.00 0.00 0.00 49 870.3
20220523113544 12 113 0.0 0.0 0.00 0.00 0.00 48 870.3
20220523113038 12 102 0.0 3.2 0.00 0.00 0.00 48 870.3
20220523112532 12 154 0.0 3.2 0.00 0.00 0.00 48 870.0
20220523112027 12 145 0.0 0.0 0.00 0.00 0.00 48 870.3
20220523111525 12 143 0.0 0.0 0.00 0.00 0.00 47 870.3
20220523111016 12 143 0.0 0.0 0.00 0.00 0.00 46 870.3
20220523110509 12 133 0.0 3.2 0.00 0.00 0.00 45 870.3
20220523110006 12 155 0.0 3.2 0.00 0.00 0.00 45 870.3
20220523105501 12 128 0.0 3.2 0.00 0.00 0.00 45 870.3
20220523104952 12 142 0.0 3.2 0.00 0.00 0.00 44 870.3
20220523104449 12 160 0.0 0.0 0.00 0.00 0.00 44 870.3
20220523103938 12 168 0.0 0.0 0.00 0.00 0.00 44 870.3
20220523103434 12 165 0.0 0.0 0.00 0.00 0.00 44 870.3
20220523102930 12 150 0.0 0.0 0.00 0.00 0.00 44 870.3
20220523102422 12 128 0.0 0.0 0.00 0.00 0.00 44 870.3
20220523101918 12 214 0.0 0.0 0.00 0.00 0.00 45 870.3
20220523101410 12 142 0.0 0.0 0.00 0.00 0.00 45 870.7
20220523100908 12 168 0.0 0.0 0.00 0.00 0.00 44 870.3
20220523100400 12 159 0.0 0.0 0.00 0.00 0.00 44 870.3
20220523095854 12 163 0.0 0.0 0.00 0.00 0.00 43 870.3
20220523095348 12 149 0.0 8.0 0.00 0.00 0.00 43 870.3
20220523094841 12 142 0.0 8.0 0.00 0.00 0.00 43 870.3
20220523094336 12 143 0.0 3.2 0.00 0.00 0.00 43 870.3
20220523093830 13 147 0.0 0.0 0.00 0.00 0.00 43 870.3
20220523093327 13 163 0.0 0.0 0.00 0.00 0.00 43 870.0
20220523092818 13 170 0.0 0.0 0.00 0.00 0.00 43 870.3
20220523092312 13 230 0.0 3.2 0.00 0.00 0.00 43 870.3
20220523091807 13 151 0.0 3.2 0.00 0.00 0.00 43 870.3
20220523091300 13 137 0.0 0.0 0.00 0.00 0.00 44 870.3
20220523090757 13 141 0.0 0.0 0.00 0.00 0.00 44 870.3
20220523090247 13 152 0.0 0.0 0.00 0.00 0.00 44 870.0
20220523085742 13 155 0.0 0.0 0.00 0.00 0.00 44 870.7
20220523085237 14 163 0.0 0.0 0.00 0.00 0.00 43 870.3
20220523084734 14 153 0.0 0.0 0.00 0.00 0.00 42 870.7
20220523084227 14 151 0.0 0.0 0.00 0.00 0.00 42 870.7
20220523083719 14 154 0.0 3.2 0.00 0.00 0.00 42 871.0
20220523083213 15 150 0.0 3.2 0.00 0.00 0.00 42 870.7
20220523082707 15 217 0.0 3.2 0.00 0.00 0.00 42 870.7
20220523082201 15 191 0.0 8.0 0.00 0.00 0.00 42 870.7
20220523081653 15 176 0.0 8.0 0.00 0.00 0.00 42 870.3
20220523081147 15 157 0.0 12.9 0.00 0.00 0.00 41 870.7
20220523080640 15 155 0.0 12.9 0.00 0.00 0.00 40 870.7
20220523080135 15 132 0.0 8.0 0.00 0.00 0.00 40 870.7
20220523075631 15 152 3.2 8.0 0.00 0.00 0.00 40 871.0
20220523075125 15 154 0.0 3.2 0.00 0.00 0.00 40 871.0
20220523074619 15 134 0.0 3.2 0.00 0.00 0.00 40 871.0
20220523074111 15 163 0.0 3.2 0.00 0.00 0.00 41 870.7
20220523073605 15 150 0.0 0.0 0.00 0.00 0.00 41 871.0
20220523073100 15 135 0.0 0.0 0.00 0.00 0.00 40 871.0
20220523072551 15 160 0.0 0.0 0.00 0.00 0.00 40 871.4
20220523072046 15 186 0.0 0.0 0.00 0.00 0.00 40 871.4
20220523071539 15 148 0.0 0.0 0.00 0.00 0.00 39 871.4
20220523071034 15 155 0.0 3.2 0.00 0.00 0.00 39 871.7
20220523070531 15 143 0.0 3.2 0.00 0.00 0.00 39 871.4
20220523070023 15 148 0.0 0.0 0.00 0.00 0.00 38 871.7
20220523065516 15 180 0.0 3.2 0.00 0.00 0.00 38 871.7
20220523065010 15 156 0.0 3.2 0.00 0.00 0.00 37 871.7
20220523064503 15 160 0.0 3.2 0.00 0.00 0.00 37 871.7
20220523064000 15 149 0.0 3.2 0.00 0.00 0.00 36 871.7
20220523063453 15 171 0.0 3.2 0.00 0.00 0.00 36 872.0
20220523062943 15 149 1.6 3.2 0.00 0.00 0.00 35 872.4
20220523062439 15 179 0.0 3.2 0.00 0.00 0.00 35 872.0
20220523061932 15 138 0.0 12.9 0.00 0.00 0.00 35 872.0
20220523061426 15 157 0.0 12.9 0.00 0.00 0.00 35 872.0
20220523060916 15 179 0.0 3.2 0.00 0.00 0.00 34 872.4
20220523060411 15 155 0.0 3.2 0.00 0.00 0.00 34 872.4
20220523055905 15 163 0.0 3.2 0.00 0.00 0.00 34 872.0
20220523055400 15 217 0.0 3.2 0.00 0.00 0.00 34 872.4
20220523054854 15 134 0.0 3.2 0.00 0.00 0.00 34 872.0
20220523054351 15 143 0.0 8.0 0.00 0.00 0.00 34 872.0
20220523053842 15 164 0.0 8.0 0.00 0.00 0.00 33 872.0
20220523053339 15 157 0.0 0.0 0.00 0.00 0.00 33 872.4
20220523052833 15 159 0.0 0.0 0.00 0.00 0.00 33 872.0
20220523052326 15 145 0.0 0.0 0.00 0.00 0.00 33 872.0
20220523051818 15 143 0.0 0.0 0.00 0.00 0.00 33 872.4
20220523051311 15 136 0.0 0.0 0.00 0.00 0.00 33 872.0
20220523050805 16 148 0.0 3.2 0.00 0.00 0.00 33 872.4
20220523050300 16 170 0.0 3.2 0.00 0.00 0.00 33 872.0
20220523045755 16 151 0.0 0.0 0.00 0.00 0.00 32 872.4
20220523045249 16 160 0.0 0.0 0.00 0.00 0.00 32 872.4
20220523044742 16 109 0.0 0.0 0.00 0.00 0.00 31 872.4
20220523044235 16 141 0.0 0.0 0.00 0.00 0.00 31 872.4
20220523043729 16 147 0.0 8.0 0.00 0.00 0.00 31 872.4
20220523043225 16 158 0.0 8.0 0.00 0.00 0.00 31 872.4
20220523042719 16 167 0.0 0.0 0.00 0.00 0.00 31 872.4
20220523042212 16 137 0.0 0.0 0.00 0.00 0.00 31 872.4
20220523041712 16 162 0.0 0.0 0.00 0.00 0.00 31 872.0
20220523041200 16 191 0.0 0.0 0.00 0.00 0.00 31 872.4
20220523040655 16 130 0.0 0.0 0.00 0.00 0.00 30 872.0